createdAt,value
2018-07-02T00:00:06.610Z,19.10
2018-07-02T00:02:40.894Z,19.10
2018-07-02T00:05:15.082Z,19.10
2018-07-02T00:10:23.219Z,19.00
2018-07-02T00:12:57.454Z,19.00
2018-07-02T00:15:31.790Z,18.80
2018-07-02T00:18:06.091Z,18.80
2018-07-02T00:20:40.300Z,18.80
2018-07-02T00:23:14.588Z,18.80
2018-07-02T00:25:48.834Z,18.80
2018-07-02T00:28:23.042Z,18.70
2018-07-02T00:33:31.358Z,18.60
2018-07-02T00:38:40.024Z,18.60
2018-07-02T00:41:14.216Z,18.50
2018-07-02T00:43:48.523Z,18.50
2018-07-02T00:46:22.794Z,18.40
2018-07-02T00:48:57.022Z,18.30
2018-07-02T00:51:31.202Z,18.40
2018-07-02T00:54:05.423Z,18.30
2018-07-02T00:56:39.709Z,18.30
2018-07-02T00:59:13.993Z,18.20
2018-07-02T01:01:48.319Z,18.20
2018-07-02T01:04:22.485Z,18.20
2018-07-02T01:06:56.765Z,18.10
2018-07-02T01:09:31.089Z,18.10
2018-07-02T01:12:05.590Z,18.00
2018-07-02T01:14:40.030Z,18.00
2018-07-02T01:17:14.446Z,17.90
2018-07-02T01:19:48.686Z,17.80
2018-07-02T01:24:56.962Z,17.60
2018-07-02T01:27:33.916Z,17.60
2018-07-02T01:30:08.054Z,17.50
2018-07-02T01:32:42.329Z,17.60
2018-07-02T01:35:16.506Z,17.60
2018-07-02T01:37:50.801Z,17.60
2018-07-02T01:40:25.212Z,17.50
2018-07-02T01:42:59.438Z,17.50
2018-07-02T01:48:07.826Z,17.40
2018-07-02T01:50:42.122Z,17.40
2018-07-02T01:53:16.314Z,17.30
2018-07-02T01:55:50.973Z,17.20
2018-07-02T01:58:25.290Z,17.20
2018-07-02T02:00:59.566Z,17.20
2018-07-02T02:03:33.813Z,17.10
2018-07-02T02:06:08.031Z,17.00
2018-07-02T02:08:42.333Z,17.00
2018-07-02T02:11:16.664Z,17.00
2018-07-02T02:13:51.255Z,16.80
2018-07-02T02:16:25.442Z,16.80
2018-07-02T02:18:59.773Z,16.90
2018-07-02T02:21:34.166Z,16.90
2018-07-02T02:24:08.419Z,16.90
2018-07-02T02:26:42.668Z,16.70
2018-07-02T02:29:17.013Z,16.60
2018-07-02T02:31:51.378Z,16.70
2018-07-02T02:34:25.694Z,16.70
2018-07-02T02:39:33.962Z,16.70
2018-07-02T02:42:08.129Z,16.70
2018-07-02T02:44:42.322Z,16.70
2018-07-02T02:47:16.686Z,16.70
2018-07-02T02:49:51.098Z,16.70
2018-07-02T02:54:59.682Z,16.60
2018-07-02T02:57:33.826Z,16.60
2018-07-02T03:00:08.278Z,16.50
2018-07-02T03:02:42.629Z,16.50
2018-07-02T03:05:16.966Z,16.30
2018-07-02T03:07:51.247Z,16.30
2018-07-02T03:10:25.494Z,16.30
2018-07-02T03:12:59.847Z,16.20
2018-07-02T03:15:34.049Z,16.20
2018-07-02T03:20:42.614Z,16.10
2018-07-02T03:23:16.913Z,16.10
2018-07-02T03:25:51.155Z,16.20
2018-07-02T03:28:25.434Z,15.90
2018-07-02T03:30:59.887Z,16.00
2018-07-02T03:33:34.542Z,16.00
2018-07-02T03:36:09.010Z,16.00
2018-07-02T03:38:43.162Z,16.00
2018-07-02T03:41:17.446Z,16.10
2018-07-02T03:43:51.669Z,16.10
2018-07-02T03:46:25.977Z,16.10
2018-07-02T03:49:00.341Z,16.10
2018-07-02T03:51:34.651Z,16.00
2018-07-02T03:54:08.880Z,15.90
2018-07-02T03:56:43.290Z,15.90
2018-07-02T04:01:51.606Z,15.90
2018-07-02T04:04:25.878Z,15.90
2018-07-02T04:07:00.282Z,15.90
2018-07-02T04:09:34.442Z,16.00
2018-07-02T04:12:08.766Z,15.90
2018-07-02T04:14:42.990Z,15.90
2018-07-02T04:17:17.195Z,16.00
2018-07-02T04:19:51.390Z,16.00
2018-07-02T04:22:25.526Z,16.00
2018-07-02T04:24:59.810Z,16.10
2018-07-02T04:27:34.141Z,16.10
2018-07-02T04:30:08.471Z,16.10
2018-07-02T04:32:42.836Z,16.00
2018-07-02T04:35:17.101Z,16.00
2018-07-02T04:37:51.530Z,15.90
2018-07-02T04:40:25.889Z,15.90
2018-07-02T04:43:00.438Z,15.90
2018-07-02T04:45:34.611Z,16.00
2018-07-02T04:48:08.908Z,16.00
2018-07-02T04:53:17.130Z,16.20
2018-07-02T04:55:51.431Z,16.30
2018-07-02T04:58:25.796Z,16.30
2018-07-02T05:01:00.028Z,16.20
2018-07-02T05:03:34.366Z,16.40
2018-07-02T05:06:09.057Z,16.20
2018-07-02T05:08:43.324Z,16.40
2018-07-02T05:11:17.445Z,16.40
2018-07-02T05:13:51.917Z,16.40
2018-07-02T05:16:26.182Z,16.40
2018-07-02T05:19:00.562Z,16.50
2018-07-02T05:21:34.864Z,16.40
2018-07-02T05:24:09.133Z,16.50
2018-07-02T05:26:43.545Z,16.40
2018-07-02T05:29:17.761Z,16.60
2018-07-02T05:34:26.151Z,16.80
2018-07-02T05:37:00.355Z,16.80
2018-07-02T05:39:34.609Z,16.80
2018-07-02T05:42:08.788Z,16.90
2018-07-02T05:44:43.146Z,17.00
2018-07-02T05:47:17.332Z,17.10
2018-07-02T05:49:51.642Z,17.10
2018-07-02T05:52:26.038Z,17.10
2018-07-02T05:55:00.441Z,17.10
2018-07-02T05:57:34.750Z,17.20
2018-07-02T06:00:09.628Z,17.10
2018-07-02T06:02:43.696Z,17.20
2018-07-02T06:05:17.989Z,17.30
2018-07-02T06:07:52.400Z,17.40
2018-07-02T06:10:26.602Z,17.30
2018-07-02T06:13:00.786Z,17.40
2018-07-02T06:15:35.249Z,17.40
2018-07-02T06:20:43.486Z,17.60
2018-07-02T06:23:17.738Z,17.60
2018-07-02T06:25:52.114Z,17.70
2018-07-02T06:28:26.374Z,17.80
2018-07-02T06:31:00.759Z,17.90
2018-07-02T06:36:09.295Z,18.00
2018-07-02T06:38:43.584Z,18.00
2018-07-02T06:41:17.975Z,17.90
2018-07-02T06:43:52.166Z,18.10
2018-07-02T06:46:26.542Z,18.30
2018-07-02T06:49:01.255Z,18.40
2018-07-02T06:51:35.595Z,18.40
2018-07-02T06:54:09.856Z,18.40
2018-07-02T06:56:44.220Z,18.50
2018-07-02T06:59:18.489Z,18.70
2018-07-02T07:01:52.739Z,18.70
2018-07-02T07:04:27.046Z,18.80
2018-07-02T07:07:01.255Z,18.80
2018-07-02T07:09:35.479Z,18.80
2018-07-02T07:12:09.695Z,19.00
2018-07-02T07:17:17.938Z,19.00
2018-07-02T07:19:52.222Z,19.10
2018-07-02T07:22:26.546Z,19.20
2018-07-02T07:25:00.883Z,19.20
2018-07-02T07:30:09.491Z,19.40
2018-07-02T07:32:43.751Z,19.50
2018-07-02T07:35:18.110Z,19.60
2018-07-02T07:37:52.404Z,19.70
2018-07-02T07:40:26.690Z,19.70
2018-07-02T07:43:00.906Z,19.80
2018-07-02T07:45:35.063Z,19.80
2018-07-02T07:48:09.416Z,19.90
2018-07-02T07:50:44.062Z,19.90
2018-07-02T07:53:18.302Z,20.00
2018-07-02T07:55:52.395Z,20.10
2018-07-02T07:58:26.914Z,20.20
2018-07-02T08:01:01.239Z,20.30
2018-07-02T08:03:35.672Z,20.30
2018-07-02T08:06:09.862Z,20.40
2018-07-02T08:08:44.061Z,20.50
2018-07-02T08:11:18.423Z,20.60
2018-07-02T08:13:53.514Z,20.70
2018-07-02T08:16:27.675Z,20.80
2018-07-02T08:19:02.066Z,20.70
2018-07-02T08:21:36.287Z,20.90
2018-07-02T08:24:10.786Z,21.10
2018-07-02T08:26:45.176Z,21.10
2018-07-02T08:29:19.514Z,21.00
2018-07-02T08:31:53.656Z,21.10
2018-07-02T08:34:27.955Z,21.20
2018-07-02T08:37:02.252Z,21.20
2018-07-02T08:39:36.510Z,21.30
2018-07-02T08:42:10.693Z,21.50
2018-07-02T08:44:45.022Z,21.70
2018-07-02T08:47:19.319Z,21.80
2018-07-02T08:49:53.634Z,21.90
2018-07-02T08:52:27.850Z,21.90
2018-07-02T08:55:02.342Z,22.00
2018-07-02T08:57:36.558Z,22.10
2018-07-02T09:02:45.063Z,22.30
2018-07-02T09:05:19.313Z,22.40
2018-07-02T09:07:53.678Z,22.50
2018-07-02T09:10:27.982Z,22.60
2018-07-02T09:13:02.254Z,22.70
2018-07-02T09:15:36.662Z,22.70
2018-07-02T09:18:10.947Z,22.90
2018-07-02T09:20:45.195Z,22.80
2018-07-02T09:23:19.449Z,22.80
2018-07-02T09:25:53.837Z,23.00
2018-07-02T09:28:28.154Z,23.10
2018-07-02T09:31:02.409Z,23.30
2018-07-02T09:33:36.678Z,23.30
2018-07-02T09:36:10.962Z,23.40
2018-07-02T09:38:45.433Z,23.60
2018-07-02T09:41:19.702Z,23.70
2018-07-02T09:43:54.372Z,23.70
2018-07-02T09:46:28.569Z,23.50
2018-07-02T09:49:03.209Z,23.70
2018-07-02T09:51:37.522Z,23.80
2018-07-02T09:54:12.174Z,23.70
2018-07-02T09:56:46.406Z,23.90
2018-07-02T09:59:20.658Z,24.00
2018-07-02T10:01:54.987Z,24.10
2018-07-02T10:04:29.174Z,24.40
2018-07-02T10:07:03.426Z,24.30
2018-07-02T10:09:37.732Z,24.50
2018-07-02T10:12:11.907Z,24.60
2018-07-02T10:14:46.142Z,24.60
2018-07-02T10:17:20.434Z,24.60
2018-07-02T10:19:54.702Z,24.70
2018-07-02T10:22:28.818Z,24.90
2018-07-02T10:25:03.119Z,25.10
2018-07-02T10:27:37.391Z,25.20
2018-07-02T10:30:12.354Z,25.30
2018-07-02T10:32:46.539Z,25.40
2018-07-02T10:35:20.798Z,25.50
2018-07-02T10:37:55.141Z,25.60
2018-07-02T10:40:29.482Z,25.60
2018-07-02T10:43:03.724Z,25.80
2018-07-02T10:45:38.090Z,25.80
2018-07-02T10:48:12.334Z,25.90
2018-07-02T10:50:46.746Z,25.80
2018-07-02T10:53:20.945Z,25.90
2018-07-02T10:55:55.231Z,26.20
2018-07-02T10:58:29.499Z,26.30
2018-07-02T11:01:03.815Z,26.50
2018-07-02T11:03:38.085Z,26.50
2018-07-02T11:06:12.325Z,26.60
2018-07-02T11:08:46.590Z,26.60
2018-07-02T11:11:20.918Z,26.50
2018-07-02T11:13:55.374Z,26.90
2018-07-02T11:16:29.678Z,27.00
2018-07-02T11:19:03.995Z,27.00
2018-07-02T11:21:38.295Z,27.30
2018-07-02T11:24:13.075Z,27.30
2018-07-02T11:26:47.466Z,27.50
2018-07-02T11:29:21.646Z,27.70
2018-07-02T11:31:55.922Z,27.70
2018-07-02T11:34:30.234Z,27.90
2018-07-02T11:37:04.807Z,27.70
2018-07-02T11:39:39.019Z,27.80
2018-07-02T11:42:13.397Z,28.10
2018-07-02T11:44:47.574Z,28.20
2018-07-02T11:47:21.778Z,27.90
2018-07-02T11:49:56.059Z,27.80
2018-07-02T11:52:30.238Z,27.80
2018-07-02T11:55:04.566Z,28.00
2018-07-02T11:57:38.835Z,28.00
2018-07-02T12:00:13.152Z,27.90
2018-07-02T12:02:47.506Z,28.00
2018-07-02T12:05:21.659Z,28.00
2018-07-02T12:07:55.941Z,28.30
2018-07-02T12:10:30.139Z,28.50
2018-07-02T12:13:04.403Z,28.60
2018-07-02T12:15:38.720Z,28.70
2018-07-02T12:18:12.988Z,28.90
2018-07-02T12:20:47.177Z,29.00
2018-07-02T12:23:21.666Z,28.60
2018-07-02T12:25:55.813Z,28.80
2018-07-02T12:28:30.102Z,29.10
2018-07-02T12:31:04.497Z,29.10
2018-07-02T12:33:38.818Z,29.10
2018-07-02T12:36:13.023Z,29.40
2018-07-02T12:38:47.422Z,29.20
2018-07-02T12:41:21.807Z,29.30
2018-07-02T12:43:56.167Z,28.70
2018-07-02T12:46:30.519Z,29.00
2018-07-02T12:49:04.815Z,29.30
2018-07-02T12:51:39.361Z,29.20
2018-07-02T12:54:13.546Z,29.30
2018-07-02T12:56:47.703Z,29.20
2018-07-02T12:59:21.874Z,29.30
2018-07-02T13:01:56.222Z,29.50
2018-07-02T13:04:30.530Z,29.80
2018-07-02T13:07:04.965Z,29.80
2018-07-02T13:09:39.323Z,30.20
2018-07-02T13:12:13.558Z,30.20
2018-07-02T13:14:47.890Z,30.00
2018-07-02T13:17:22.118Z,30.40
2018-07-02T13:19:56.543Z,30.10
2018-07-02T13:22:30.742Z,29.90
2018-07-02T13:25:05.042Z,30.00
2018-07-02T13:30:13.319Z,30.20
2018-07-02T13:32:47.715Z,30.60
2018-07-02T13:35:21.877Z,30.70
2018-07-02T13:37:56.374Z,30.70
2018-07-02T13:40:30.687Z,31.00
2018-07-02T13:43:05.023Z,31.10
2018-07-02T13:48:13.794Z,30.80
2018-07-02T13:50:48.012Z,30.50
2018-07-02T13:53:22.214Z,30.30
2018-07-02T13:55:56.535Z,30.80
2018-07-02T13:58:30.877Z,30.80
2018-07-02T14:01:05.154Z,31.00
2018-07-02T14:03:39.441Z,31.00
2018-07-02T14:06:13.682Z,31.20
2018-07-02T14:08:48.027Z,31.20
2018-07-02T14:11:22.323Z,31.20
2018-07-02T14:13:56.770Z,31.40
2018-07-02T14:16:31.038Z,31.60
2018-07-02T14:19:05.862Z,31.70
2018-07-02T14:21:40.065Z,31.60
2018-07-02T14:24:14.370Z,31.20
2018-07-02T14:26:48.557Z,31.30
2018-07-02T14:29:22.855Z,31.20
2018-07-02T14:31:57.154Z,31.20
2018-07-02T14:34:31.358Z,31.20
2018-07-02T14:37:05.683Z,31.00
2018-07-02T14:39:39.962Z,31.20
2018-07-02T14:44:48.444Z,31.70
2018-07-02T14:47:22.394Z,31.60
2018-07-02T14:49:56.562Z,31.50
2018-07-02T14:52:30.886Z,31.60
2018-07-02T14:55:05.641Z,31.70
2018-07-02T14:57:39.926Z,31.60
2018-07-02T15:00:14.321Z,31.50
2018-07-02T15:02:48.582Z,31.70
2018-07-02T15:07:56.871Z,31.30
2018-07-02T15:10:31.354Z,31.20
2018-07-02T15:13:05.679Z,31.50
2018-07-02T15:15:39.995Z,31.40
2018-07-02T15:18:14.649Z,31.10
2018-07-02T15:20:48.934Z,31.40
2018-07-02T15:23:23.206Z,31.50
2018-07-02T15:25:57.483Z,31.70
2018-07-02T15:28:31.914Z,31.80
2018-07-02T15:31:06.450Z,31.90
2018-07-02T15:33:40.810Z,31.40
2018-07-02T15:36:15.159Z,31.80
2018-07-02T15:38:49.350Z,31.70
2018-07-02T15:41:23.750Z,31.70
2018-07-02T15:43:58.040Z,31.70
2018-07-02T15:46:32.290Z,31.80
2018-07-02T15:49:06.818Z,31.70
2018-07-02T15:51:41.167Z,31.90
2018-07-02T15:54:15.485Z,31.60
2018-07-02T15:56:49.773Z,31.70
2018-07-02T15:59:24.056Z,31.70
2018-07-02T16:01:58.311Z,31.40
2018-07-02T16:04:32.561Z,31.10
2018-07-02T16:07:06.754Z,31.20
2018-07-02T16:09:41.014Z,31.60
2018-07-02T16:12:15.622Z,31.30
2018-07-02T16:14:49.814Z,31.00
2018-07-02T16:19:58.097Z,31.40
2018-07-02T16:22:32.418Z,31.00
2018-07-02T16:25:06.725Z,31.40
2018-07-02T16:27:40.901Z,31.60
2018-07-02T16:30:15.222Z,31.60
2018-07-02T16:32:49.666Z,31.70
2018-07-02T16:35:24.078Z,31.40
2018-07-02T16:37:58.306Z,31.60
2018-07-02T16:40:32.575Z,31.50
2018-07-02T16:43:06.819Z,31.20
2018-07-02T16:45:41.158Z,31.10
2018-07-02T16:48:15.414Z,31.20
2018-07-02T16:50:49.770Z,31.20
2018-07-02T16:53:24.176Z,31.50
2018-07-02T16:55:58.630Z,31.70
2018-07-02T16:58:32.766Z,31.60
2018-07-02T17:01:07.117Z,31.10
2018-07-02T17:03:41.306Z,31.30
2018-07-02T17:06:15.583Z,31.20
2018-07-02T17:08:49.998Z,31.20
2018-07-02T17:11:24.199Z,31.10
2018-07-02T17:13:58.428Z,31.20
2018-07-02T17:16:32.745Z,31.30
2018-07-02T17:19:07.014Z,31.20
2018-07-02T17:21:41.311Z,31.10
2018-07-02T17:24:15.660Z,31.10
2018-07-02T17:26:49.887Z,31.30
2018-07-02T17:29:24.154Z,31.10
2018-07-02T17:31:58.747Z,31.30
2018-07-02T17:34:33.551Z,31.10
2018-07-02T17:37:07.848Z,31.20
2018-07-02T17:39:42.245Z,31.00
2018-07-02T17:42:16.670Z,31.20
2018-07-02T17:44:50.853Z,30.30
2018-07-02T17:47:25.176Z,30.60
2018-07-02T17:49:59.305Z,30.70
2018-07-02T17:52:33.638Z,30.40
2018-07-02T17:55:07.972Z,30.70
2018-07-02T17:57:42.359Z,30.50
2018-07-02T18:00:16.577Z,30.40
2018-07-02T18:02:51.301Z,30.10
2018-07-02T18:05:25.608Z,30.00
2018-07-02T18:07:59.890Z,30.10
2018-07-02T18:10:34.140Z,30.10
2018-07-02T18:13:08.466Z,30.20
2018-07-02T18:15:42.712Z,29.90
2018-07-02T18:18:16.978Z,29.90
2018-07-02T18:20:51.343Z,29.70
2018-07-02T18:25:59.646Z,29.30
2018-07-02T18:28:34.030Z,29.10
2018-07-02T18:31:08.441Z,28.90
2018-07-02T18:33:42.682Z,28.80
2018-07-02T18:36:16.966Z,28.50
2018-07-02T18:38:51.242Z,28.40
2018-07-02T18:41:25.554Z,28.40
2018-07-02T18:43:59.858Z,28.20
2018-07-02T18:46:34.158Z,28.10
2018-07-02T18:49:08.368Z,27.80
2018-07-02T18:51:42.678Z,27.80
2018-07-02T18:54:16.914Z,27.50
2018-07-02T18:56:51.338Z,27.40
2018-07-02T18:59:25.578Z,27.30
2018-07-02T19:01:59.874Z,27.00
2018-07-02T19:04:34.186Z,26.80
2018-07-02T19:07:08.522Z,26.60
2018-07-02T19:09:42.690Z,26.80
2018-07-02T19:12:16.982Z,26.60
2018-07-02T19:14:51.312Z,26.50
2018-07-02T19:17:25.695Z,26.50
2018-07-02T19:20:00.070Z,26.40
2018-07-02T19:22:34.357Z,26.20
2018-07-02T19:25:08.843Z,26.10
2018-07-02T19:27:43.226Z,26.00
2018-07-02T19:30:17.441Z,25.80
2018-07-02T19:32:51.742Z,25.70
2018-07-02T19:35:25.974Z,25.70
2018-07-02T19:38:00.195Z,25.50
2018-07-02T19:40:34.494Z,25.50
2018-07-02T19:43:08.710Z,25.30
2018-07-02T19:45:42.874Z,25.20
2018-07-02T19:48:17.087Z,25.10
2018-07-02T19:50:51.317Z,25.10
2018-07-02T19:53:25.668Z,24.90
2018-07-02T19:55:59.933Z,24.80
2018-07-02T19:58:34.221Z,24.70
2018-07-02T20:01:08.458Z,24.70
2018-07-02T20:03:42.583Z,24.50
2018-07-02T20:06:16.849Z,24.40
2018-07-02T20:08:51.186Z,24.40
2018-07-02T20:11:25.755Z,24.10
2018-07-02T20:14:00.094Z,24.00
2018-07-02T20:16:34.435Z,23.90
2018-07-02T20:19:08.914Z,23.80
2018-07-02T20:21:43.152Z,23.70
2018-07-02T20:24:17.382Z,23.70
2018-07-02T20:26:51.892Z,23.70
2018-07-02T20:29:26.136Z,23.60
2018-07-02T20:32:00.327Z,23.70
2018-07-02T20:34:34.666Z,23.50
2018-07-02T20:37:08.978Z,23.50
2018-07-02T20:39:43.233Z,23.30
2018-07-02T20:42:17.496Z,23.10
2018-07-02T20:44:51.815Z,22.50
2018-07-02T20:47:26.063Z,22.80
2018-07-02T20:50:00.467Z,22.90
2018-07-02T20:52:34.734Z,22.80
2018-07-02T20:55:09.005Z,22.00
2018-07-02T20:57:43.287Z,22.50
2018-07-02T21:00:17.490Z,22.60
2018-07-02T21:05:25.850Z,22.50
2018-07-02T21:08:00.326Z,22.50
2018-07-02T21:10:34.582Z,22.40
2018-07-02T21:13:08.871Z,22.40
2018-07-02T21:15:43.169Z,22.30
2018-07-02T21:18:17.406Z,22.20
2018-07-02T21:20:51.626Z,22.20
2018-07-02T21:23:25.958Z,22.10
2018-07-02T21:26:00.218Z,22.10
2018-07-02T21:28:34.633Z,22.10
2018-07-02T21:31:08.975Z,21.80
2018-07-02T21:33:43.122Z,21.40
2018-07-02T21:36:17.426Z,21.50
2018-07-02T21:38:51.795Z,21.80
2018-07-02T21:41:26.063Z,21.90
2018-07-02T21:44:00.403Z,21.90
2018-07-02T21:46:34.625Z,22.00
2018-07-02T21:49:08.910Z,22.00
2018-07-02T21:51:43.208Z,22.00
2018-07-02T21:54:17.489Z,22.10
2018-07-02T21:56:51.817Z,22.10
2018-07-02T21:59:26.075Z,22.00
2018-07-02T22:02:00.342Z,22.00
2018-07-02T22:04:34.630Z,22.00
2018-07-02T22:07:08.926Z,21.90
2018-07-02T22:09:43.235Z,21.80
2018-07-02T22:12:17.530Z,21.80
2018-07-02T22:14:51.842Z,21.70
2018-07-02T22:17:26.207Z,21.60
2018-07-02T22:20:00.522Z,21.50
2018-07-02T22:22:34.825Z,21.50
2018-07-02T22:25:09.106Z,21.40
2018-07-02T22:30:17.421Z,21.30
2018-07-02T22:32:51.721Z,21.20
2018-07-02T22:35:26.079Z,21.20
2018-07-02T22:38:00.370Z,21.20
2018-07-02T22:40:34.690Z,21.10
2018-07-02T22:43:08.953Z,21.10
2018-07-02T22:45:43.393Z,21.00
2018-07-02T22:48:17.558Z,20.80
2018-07-02T22:50:51.820Z,20.70
2018-07-02T22:53:25.970Z,20.60
2018-07-02T22:56:03.026Z,20.70
2018-07-02T22:58:37.285Z,20.70
2018-07-02T23:01:11.562Z,20.70
2018-07-02T23:03:45.842Z,20.60
2018-07-02T23:06:20.026Z,20.60
2018-07-02T23:08:54.299Z,20.60
2018-07-02T23:11:28.538Z,20.60
2018-07-02T23:14:02.834Z,20.40
2018-07-02T23:16:37.145Z,20.40
2018-07-02T23:19:11.406Z,20.20
2018-07-02T23:21:45.742Z,20.20
2018-07-02T23:24:20.019Z,20.20
2018-07-02T23:26:54.298Z,20.20
2018-07-02T23:29:28.614Z,20.10
2018-07-02T23:32:02.794Z,19.90
2018-07-02T23:34:37.070Z,19.90
2018-07-02T23:37:11.251Z,19.80
2018-07-02T23:39:45.526Z,19.70
2018-07-02T23:42:19.840Z,19.70
2018-07-02T23:44:54.286Z,19.80
2018-07-02T23:47:28.567Z,19.70
2018-07-02T23:50:02.878Z,19.50
2018-07-02T23:52:37.151Z,19.50
2018-07-02T23:55:11.710Z,19.50
2018-07-02T23:57:46.010Z,19.30
